createdAt,value
2019-03-17T00:01:36.850Z,2.43
2019-03-17T00:04:08.730Z,2.33
2019-03-17T00:06:40.568Z,1.77
2019-03-17T00:09:12.468Z,2.87
2019-03-17T00:11:44.244Z,1.63
2019-03-17T00:14:16.063Z,2.37
2019-03-17T00:16:47.927Z,2.53
2019-03-17T00:19:19.735Z,1.93
2019-03-17T00:21:51.558Z,2.13
2019-03-17T00:24:23.309Z,1.63
2019-03-17T00:26:55.259Z,1.47
2019-03-17T00:29:27.081Z,1.87
2019-03-17T00:31:58.968Z,1.50
2019-03-17T00:34:43.170Z,1.67
2019-03-17T00:37:06.572Z,1.60
2019-03-17T00:39:38.397Z,1.47
2019-03-17T00:42:11.963Z,3.17
2019-03-17T00:44:44.669Z,2.40
2019-03-17T00:47:16.570Z,2.13
2019-03-17T00:49:48.229Z,2.53
2019-03-17T00:52:19.978Z,1.37
2019-03-17T00:54:51.722Z,2.43
2019-03-17T00:57:23.462Z,1.87
2019-03-17T00:59:55.162Z,1.50
2019-03-17T01:02:27.043Z,2.43
2019-03-17T01:04:58.956Z,2.13
2019-03-17T01:07:30.859Z,1.23
2019-03-17T01:10:02.710Z,2.47
2019-03-17T01:12:36.432Z,1.97
2019-03-17T01:15:08.857Z,1.67
2019-03-17T01:17:40.520Z,2.93
2019-03-17T01:20:12.207Z,2.60
2019-03-17T01:22:43.951Z,3.67
2019-03-17T01:25:16.209Z,2.87
2019-03-17T01:27:49.058Z,1.83
2019-03-17T01:30:20.882Z,2.23
2019-03-17T01:32:52.561Z,1.60
2019-03-17T01:35:24.486Z,2.40
2019-03-17T01:37:56.158Z,1.77
2019-03-17T01:40:27.970Z,2.07
2019-03-17T01:42:59.725Z,2.97
2019-03-17T01:45:31.469Z,2.63
2019-03-17T01:48:03.353Z,1.93
2019-03-17T01:50:35.000Z,2.47
2019-03-17T01:53:06.650Z,1.43
2019-03-17T01:55:38.361Z,2.20
2019-03-17T01:58:10.083Z,3.10
2019-03-17T02:00:42.020Z,1.67
2019-03-17T02:03:13.821Z,2.17
2019-03-17T02:05:45.511Z,1.70
2019-03-17T02:08:17.251Z,2.20
2019-03-17T02:10:49.120Z,1.90
2019-03-17T02:13:20.777Z,2.93
2019-03-17T02:15:52.398Z,2.40
2019-03-17T02:18:24.065Z,1.57
2019-03-17T02:20:55.740Z,2.90
2019-03-17T02:23:27.608Z,2.83
2019-03-17T02:25:59.338Z,2.30
2019-03-17T02:28:30.980Z,2.30
2019-03-17T02:31:02.698Z,1.63
2019-03-17T02:33:34.333Z,2.27
2019-03-17T02:36:07.219Z,1.73
2019-03-17T02:38:39.929Z,2.60
2019-03-17T02:41:11.652Z,2.37
2019-03-17T02:43:43.379Z,1.80
2019-03-17T02:46:15.106Z,1.60
2019-03-17T02:48:46.786Z,2.90
2019-03-17T02:51:18.468Z,2.20
2019-03-17T02:53:50.142Z,2.83
2019-03-17T02:56:22.027Z,2.37
2019-03-17T02:58:53.677Z,2.10
2019-03-17T03:01:25.488Z,2.53
2019-03-17T03:03:57.255Z,3.57
2019-03-17T03:06:29.036Z,3.27
2019-03-17T03:09:00.817Z,4.33
2019-03-17T03:11:32.589Z,4.70
2019-03-17T03:14:04.376Z,3.53
2019-03-17T03:16:36.129Z,2.53
2019-03-17T03:19:07.801Z,5.50
2019-03-17T03:21:39.578Z,5.53
2019-03-17T03:24:11.401Z,4.57
2019-03-17T03:26:43.049Z,3.10
2019-03-17T03:29:14.955Z,6.50
2019-03-17T03:31:46.592Z,3.00
2019-03-17T03:34:18.277Z,3.83
2019-03-17T03:36:50.022Z,2.83
2019-03-17T03:39:21.698Z,7.00
2019-03-17T03:41:53.508Z,4.73
2019-03-17T03:44:25.444Z,4.50
2019-03-17T03:46:58.174Z,4.87
2019-03-17T03:49:30.308Z,3.97
2019-03-17T03:52:01.962Z,4.17
2019-03-17T03:54:33.764Z,2.87
2019-03-17T03:57:05.573Z,2.77
2019-03-17T03:59:37.256Z,2.73
2019-03-17T04:02:09.003Z,5.20
2019-03-17T04:04:40.759Z,4.27
2019-03-17T04:07:12.439Z,4.70
2019-03-17T04:09:44.571Z,4.40
2019-03-17T04:12:16.519Z,3.40
2019-03-17T04:14:48.198Z,4.83
2019-03-17T04:17:19.899Z,4.83
2019-03-17T04:19:51.534Z,3.47
2019-03-17T04:22:23.211Z,3.67
2019-03-17T04:24:55.052Z,3.50
2019-03-17T04:27:26.794Z,4.27
2019-03-17T04:29:58.465Z,3.07
2019-03-17T04:32:30.222Z,4.97
2019-03-17T04:35:01.903Z,4.97
2019-03-17T04:37:33.674Z,3.20
2019-03-17T04:40:06.017Z,4.10
2019-03-17T04:42:37.755Z,5.53
2019-03-17T04:45:10.275Z,2.73
2019-03-17T04:47:41.902Z,3.70
2019-03-17T04:50:14.867Z,5.33
2019-03-17T04:52:46.668Z,3.50
2019-03-17T04:55:18.532Z,3.23
2019-03-17T04:57:50.224Z,4.93
2019-03-17T05:00:21.910Z,4.87
2019-03-17T05:02:53.624Z,4.90
2019-03-17T05:05:25.384Z,4.17
2019-03-17T05:07:57.379Z,6.27
2019-03-17T05:10:29.086Z,6.00
2019-03-17T05:13:00.716Z,5.47
2019-03-17T05:15:33.699Z,2.77
2019-03-17T05:18:05.374Z,4.20
2019-03-17T05:20:37.109Z,2.87
2019-03-17T05:23:08.779Z,2.47
2019-03-17T05:25:40.478Z,4.07
2019-03-17T05:28:12.149Z,4.27
2019-03-17T05:30:43.789Z,3.93
2019-03-17T05:33:15.516Z,4.30
2019-03-17T05:35:47.187Z,3.97
2019-03-17T05:38:19.766Z,6.33
2019-03-17T05:40:51.432Z,3.20
2019-03-17T05:43:23.173Z,5.93
2019-03-17T05:45:56.020Z,4.80
2019-03-17T05:48:27.647Z,4.63
2019-03-17T05:50:59.331Z,6.37
2019-03-17T05:53:31.102Z,3.37
2019-03-17T05:56:02.874Z,5.00
2019-03-17T05:58:34.487Z,3.17
2019-03-17T06:01:06.136Z,4.07
2019-03-17T06:03:38.629Z,5.63
2019-03-17T06:06:20.451Z,3.53
2019-03-17T06:08:52.115Z,3.10
2019-03-17T06:11:23.875Z,3.37
2019-03-17T06:13:55.507Z,2.70
2019-03-17T06:16:27.281Z,2.93
2019-03-17T06:18:58.899Z,4.33
2019-03-17T06:21:30.598Z,5.03
2019-03-17T06:24:02.491Z,3.17
2019-03-17T06:26:34.161Z,3.57
2019-03-17T06:29:05.859Z,4.47
2019-03-17T06:31:38.361Z,2.93
2019-03-17T06:34:10.015Z,5.40
2019-03-17T06:36:41.655Z,8.37
2019-03-17T06:39:13.653Z,3.57
2019-03-17T06:41:46.396Z,3.87
2019-03-17T06:44:18.131Z,3.63
2019-03-17T06:46:49.908Z,6.13
2019-03-17T06:49:21.610Z,2.70
2019-03-17T06:51:53.235Z,4.00
2019-03-17T06:54:24.942Z,5.10
2019-03-17T06:56:56.878Z,2.87
2019-03-17T06:59:30.164Z,3.87
2019-03-17T07:02:01.905Z,3.30
2019-03-17T07:04:33.660Z,3.00
2019-03-17T07:07:05.471Z,3.90
2019-03-17T07:09:37.141Z,2.70
2019-03-17T07:12:08.770Z,3.23
2019-03-17T07:14:40.455Z,4.00
2019-03-17T07:17:12.089Z,3.50
2019-03-17T07:19:43.743Z,2.33
2019-03-17T07:22:15.565Z,2.87
2019-03-17T07:24:47.382Z,1.70
2019-03-17T07:27:19.459Z,2.33
2019-03-17T07:29:51.224Z,1.70
2019-03-17T07:32:22.943Z,1.60
2019-03-17T07:34:54.624Z,0.60
2019-03-17T07:37:27.503Z,0.47
2019-03-17T07:39:59.156Z,0.40
2019-03-17T07:42:33.818Z,0.73
2019-03-17T07:45:07.045Z,1.00
2019-03-17T07:47:38.784Z,0.80
2019-03-17T07:50:11.587Z,0.50
2019-03-17T07:52:43.402Z,0.67
2019-03-17T07:55:15.460Z,1.27
2019-03-17T07:57:48.430Z,1.93
2019-03-17T08:00:31.338Z,0.90
2019-03-17T08:02:54.816Z,0.93
2019-03-17T08:05:27.339Z,0.80
2019-03-17T08:08:08.824Z,1.50
2019-03-17T08:10:32.664Z,0.60
2019-03-17T08:13:04.439Z,1.07
2019-03-17T08:15:37.866Z,2.63
2019-03-17T08:18:09.667Z,1.20
2019-03-17T08:20:41.319Z,1.20
2019-03-17T08:23:13.026Z,1.20
2019-03-17T08:25:44.862Z,1.43
2019-03-17T08:28:16.590Z,2.83
2019-03-17T08:30:53.411Z,2.17
2019-03-17T08:33:21.671Z,3.77
2019-03-17T08:35:53.699Z,1.03
2019-03-17T08:38:25.401Z,2.20
2019-03-17T08:40:57.386Z,1.57
2019-03-17T08:43:29.305Z,1.10
2019-03-17T08:46:01.125Z,1.83
2019-03-17T08:48:33.295Z,0.77
2019-03-17T08:51:06.727Z,1.73
2019-03-17T08:53:39.628Z,2.10
2019-03-17T08:56:11.369Z,0.90
2019-03-17T08:58:44.060Z,2.70
2019-03-17T09:01:15.745Z,3.27
2019-03-17T09:03:49.988Z,1.87
2019-03-17T09:06:22.144Z,2.57
2019-03-17T09:08:53.966Z,2.10
2019-03-17T09:11:25.767Z,4.40
2019-03-17T09:13:57.661Z,2.50
2019-03-17T09:16:29.425Z,0.90
2019-03-17T09:19:01.230Z,3.63
2019-03-17T09:21:33.844Z,1.53
2019-03-17T09:24:16.624Z,1.73
2019-03-17T09:26:39.858Z,3.13
2019-03-17T09:29:11.743Z,2.13
2019-03-17T09:31:43.577Z,4.50
2019-03-17T09:34:15.653Z,2.30
2019-03-17T09:36:47.422Z,2.13
2019-03-17T09:39:19.524Z,2.97
2019-03-17T09:41:51.759Z,3.30
2019-03-17T09:44:23.614Z,3.27
2019-03-17T09:46:56.003Z,2.97
2019-03-17T09:49:27.962Z,3.40
2019-03-17T09:51:59.767Z,2.03
2019-03-17T09:54:31.650Z,3.57
2019-03-17T09:57:05.714Z,3.33
2019-03-17T09:59:40.564Z,2.93
2019-03-17T10:02:13.242Z,2.57
2019-03-17T10:04:45.029Z,3.00
2019-03-17T10:07:16.853Z,2.90
2019-03-17T10:09:48.591Z,3.20
2019-03-17T10:12:20.684Z,3.60
2019-03-17T10:14:52.410Z,1.63
2019-03-17T10:17:24.456Z,2.77
2019-03-17T10:19:56.191Z,1.90
2019-03-17T10:22:28.594Z,2.43
2019-03-17T10:25:00.451Z,1.50
2019-03-17T10:27:34.052Z,2.10
2019-03-17T10:30:07.512Z,2.73
2019-03-17T10:32:39.458Z,1.70
2019-03-17T10:35:12.028Z,1.77
2019-03-17T10:37:43.919Z,1.50
2019-03-17T10:40:16.173Z,1.67
2019-03-17T10:42:48.080Z,2.77
2019-03-17T10:45:20.502Z,2.90
2019-03-17T10:47:54.505Z,1.60
2019-03-17T10:50:25.871Z,1.90
2019-03-17T10:52:59.595Z,1.63
2019-03-17T10:55:32.129Z,3.97
2019-03-17T10:58:04.310Z,3.20
2019-03-17T11:00:36.238Z,2.23
2019-03-17T11:03:09.660Z,2.60
2019-03-17T11:05:41.525Z,3.10
2019-03-17T11:08:13.926Z,2.30
2019-03-17T11:10:47.575Z,2.03
2019-03-17T11:13:22.399Z,2.57
2019-03-17T11:15:54.526Z,1.00
2019-03-17T11:18:26.433Z,1.40
2019-03-17T11:20:58.158Z,2.23
2019-03-17T11:23:30.609Z,1.67
2019-03-17T11:26:02.518Z,2.50
2019-03-17T11:28:34.400Z,1.47
2019-03-17T11:31:06.455Z,1.60
2019-03-17T11:33:42.498Z,0.90
2019-03-17T11:36:14.806Z,2.33
2019-03-17T11:38:47.134Z,1.87
2019-03-17T11:41:19.047Z,1.50
2019-03-17T11:43:50.782Z,2.43
2019-03-17T11:46:22.464Z,1.40
2019-03-17T11:48:54.369Z,1.73
2019-03-17T11:51:26.314Z,1.57
2019-03-17T11:53:58.382Z,1.60
2019-03-17T11:56:30.455Z,1.40
2019-03-17T11:59:02.971Z,1.37
2019-03-17T12:01:36.235Z,0.70
2019-03-17T12:04:07.923Z,1.27
2019-03-17T12:06:39.794Z,1.80
2019-03-17T12:09:11.977Z,1.27
2019-03-17T12:11:43.798Z,0.87
2019-03-17T12:14:15.886Z,1.80
2019-03-17T12:16:51.920Z,1.20
2019-03-17T12:19:23.722Z,1.13
2019-03-17T12:22:08.216Z,1.53
2019-03-17T12:24:29.223Z,0.67
2019-03-17T12:27:01.150Z,1.37
2019-03-17T12:29:35.241Z,1.95
2019-03-17T12:32:07.023Z,1.00
2019-03-17T12:34:38.794Z,1.67
2019-03-17T12:37:10.861Z,1.63
2019-03-17T12:39:42.762Z,1.83
2019-03-17T12:42:14.579Z,0.93
2019-03-17T12:44:46.967Z,1.00
2019-03-17T12:47:21.451Z,0.53
2019-03-17T12:49:55.940Z,1.20
2019-03-17T12:52:27.762Z,1.03
2019-03-17T12:54:59.616Z,3.40
2019-03-17T12:57:34.471Z,0.53
2019-03-17T13:00:08.303Z,1.33
2019-03-17T13:02:40.287Z,0.60
2019-03-17T13:05:13.047Z,1.03
2019-03-17T13:07:45.373Z,1.13
2019-03-17T13:10:18.575Z,1.97
2019-03-17T13:12:50.341Z,0.80
2019-03-17T13:15:22.479Z,1.30
2019-03-17T13:17:54.466Z,1.07
2019-03-17T13:20:26.274Z,1.37
2019-03-17T13:22:58.136Z,2.13
2019-03-17T13:25:30.000Z,0.67
2019-03-17T13:28:03.748Z,1.67
2019-03-17T13:30:35.560Z,1.87
2019-03-17T13:33:09.412Z,1.17
2019-03-17T13:35:41.383Z,0.83
2019-03-17T13:38:15.471Z,1.03
2019-03-17T13:40:47.322Z,0.93
2019-03-17T13:43:19.159Z,0.73
2019-03-17T13:45:52.487Z,1.17
2019-03-17T13:48:27.521Z,1.90
2019-03-17T13:51:00.575Z,2.00
2019-03-17T13:53:32.263Z,0.50
2019-03-17T13:56:07.728Z,2.13
2019-03-17T13:58:39.948Z,1.60
2019-03-17T14:01:11.820Z,1.33
2019-03-17T14:03:44.117Z,3.73
2019-03-17T14:06:16.722Z,1.10
2019-03-17T14:08:48.736Z,0.97
2019-03-17T14:11:22.487Z,3.03
2019-03-17T14:13:54.761Z,1.50
2019-03-17T14:16:28.484Z,1.77
2019-03-17T14:19:00.661Z,1.47
2019-03-17T14:21:34.774Z,1.63
2019-03-17T14:24:09.097Z,0.80
2019-03-17T14:26:47.084Z,2.37
2019-03-17T14:29:18.805Z,2.57
2019-03-17T14:31:53.739Z,1.70
2019-03-17T14:34:28.802Z,1.47
2019-03-17T14:37:02.188Z,1.20
2019-03-17T14:39:34.051Z,1.87
2019-03-17T14:42:05.926Z,2.13
2019-03-17T14:44:38.732Z,2.63
2019-03-17T14:47:10.665Z,0.70
2019-03-17T14:49:44.486Z,1.00
2019-03-17T14:52:16.446Z,2.20
2019-03-17T14:54:48.361Z,1.87
2019-03-17T14:57:21.315Z,3.13
2019-03-17T14:59:53.397Z,1.43
2019-03-17T15:02:25.133Z,0.97
2019-03-17T15:04:57.207Z,2.10
2019-03-17T15:07:29.046Z,1.63
2019-03-17T15:10:02.882Z,1.37
2019-03-17T15:12:34.731Z,2.00
2019-03-17T15:15:08.781Z,1.80
2019-03-17T15:17:45.211Z,1.43
2019-03-17T15:20:18.611Z,1.07
2019-03-17T15:22:51.777Z,1.60
2019-03-17T15:25:25.873Z,1.57
2019-03-17T15:27:58.778Z,1.67
2019-03-17T15:30:31.575Z,1.40
2019-03-17T15:33:05.341Z,0.60
2019-03-17T15:35:37.153Z,1.37
2019-03-17T15:38:10.753Z,2.43
2019-03-17T15:40:50.597Z,3.27
2019-03-17T15:43:22.698Z,1.50
2019-03-17T15:45:55.145Z,1.07
2019-03-17T15:48:26.969Z,0.70
2019-03-17T15:50:59.255Z,0.87
2019-03-17T15:53:31.136Z,1.60
2019-03-17T15:56:04.085Z,1.83
2019-03-17T15:58:35.801Z,2.03
2019-03-17T16:01:07.788Z,1.23
2019-03-17T16:03:41.142Z,2.30
2019-03-17T16:06:13.964Z,1.50
2019-03-17T16:08:49.045Z,1.90
2019-03-17T16:11:30.396Z,2.83
2019-03-17T16:13:56.787Z,2.10
2019-03-17T16:16:31.947Z,1.63
2019-03-17T16:19:13.674Z,1.83
2019-03-17T16:21:47.526Z,1.20
2019-03-17T16:24:19.829Z,0.63
2019-03-17T16:26:52.282Z,0.80
2019-03-17T16:29:25.608Z,1.93
2019-03-17T16:31:58.725Z,0.60
2019-03-17T16:34:30.766Z,1.13
2019-03-17T16:37:05.426Z,0.73
2019-03-17T16:39:39.296Z,1.37
2019-03-17T16:42:12.726Z,1.40
2019-03-17T16:44:44.623Z,0.57
2019-03-17T16:47:16.613Z,1.37
2019-03-17T16:49:48.402Z,1.57
2019-03-17T16:52:20.899Z,2.17
2019-03-17T16:55:01.998Z,2.23
2019-03-17T16:57:34.720Z,1.07
2019-03-17T17:00:10.507Z,2.23
2019-03-17T17:02:47.140Z,1.70
2019-03-17T17:05:21.151Z,2.93
2019-03-17T17:07:55.318Z,3.40
2019-03-17T17:10:27.400Z,3.20
2019-03-17T17:12:59.401Z,3.37
2019-03-17T17:15:32.580Z,1.60
2019-03-17T17:18:07.396Z,1.43
2019-03-17T17:20:39.882Z,1.50
2019-03-17T17:23:12.212Z,2.00
2019-03-17T17:25:44.469Z,1.50
2019-03-17T17:28:19.397Z,1.80
2019-03-17T17:30:54.214Z,2.43
2019-03-17T17:33:27.909Z,3.27
2019-03-17T17:36:01.705Z,1.80
2019-03-17T17:38:34.041Z,1.40
2019-03-17T17:41:11.097Z,3.17
2019-03-17T17:43:46.399Z,1.63
2019-03-17T17:46:18.167Z,1.73
2019-03-17T17:48:50.292Z,1.53
2019-03-17T17:51:23.197Z,2.00
2019-03-17T17:53:55.209Z,3.90
2019-03-17T17:56:29.239Z,2.70
2019-03-17T17:59:04.419Z,2.17
2019-03-17T18:01:40.858Z,1.97
2019-03-17T18:04:13.486Z,3.60
2019-03-17T18:06:48.810Z,3.37
2019-03-17T18:09:24.003Z,2.17
2019-03-17T18:11:57.303Z,1.37
2019-03-17T18:14:29.578Z,1.23
2019-03-17T18:17:01.561Z,3.40
2019-03-17T18:23:37.728Z,2.83
2019-03-17T18:26:10.133Z,1.50
2019-03-17T18:28:42.256Z,2.60
2019-03-17T18:31:14.046Z,1.97
2019-03-17T18:33:47.367Z,1.53
2019-03-17T18:36:20.076Z,1.77
2019-03-17T18:38:51.947Z,2.90
2019-03-17T18:41:24.002Z,2.43
2019-03-17T18:43:57.657Z,2.90
2019-03-17T18:46:29.557Z,1.50
2019-03-17T18:49:02.153Z,2.30
2019-03-17T18:51:36.313Z,2.03
2019-03-17T18:54:09.771Z,2.70
2019-03-17T18:56:45.937Z,1.53
2019-03-17T18:59:18.825Z,2.30
2019-03-17T19:01:51.274Z,2.10
2019-03-17T19:04:24.691Z,3.33
2019-03-17T19:06:56.921Z,1.67
2019-03-17T19:09:31.310Z,2.13
2019-03-17T19:12:08.110Z,1.33
2019-03-17T19:14:41.263Z,3.23
2019-03-17T19:17:15.202Z,5.20
2019-03-17T19:19:47.230Z,1.70
2019-03-17T19:22:19.969Z,1.53
2019-03-17T19:24:52.234Z,1.77
2019-03-17T19:27:28.378Z,2.50
2019-03-17T19:30:00.491Z,1.50
2019-03-17T19:32:36.624Z,2.77
2019-03-17T19:35:08.784Z,1.53
2019-03-17T19:37:46.240Z,1.23
2019-03-17T19:40:20.417Z,0.57
2019-03-17T19:42:59.017Z,1.73
2019-03-17T19:45:29.645Z,0.63
2019-03-17T19:48:01.966Z,3.20
2019-03-17T19:50:35.609Z,0.87
2019-03-17T19:53:07.412Z,0.87
2019-03-17T19:55:40.655Z,0.87
2019-03-17T19:58:12.706Z,1.47
2019-03-17T20:00:46.436Z,0.63
2019-03-17T20:03:20.865Z,1.13
2019-03-17T20:06:02.137Z,1.57
2019-03-17T20:08:27.143Z,1.43
2019-03-17T20:10:58.964Z,1.37
2019-03-17T20:13:33.184Z,1.83
2019-03-17T20:16:06.783Z,2.33
2019-03-17T20:18:41.562Z,1.50
2019-03-17T20:21:14.130Z,1.20
2019-03-17T20:23:46.067Z,1.77
2019-03-17T20:26:21.554Z,1.17
2019-03-17T20:28:54.575Z,2.37
2019-03-17T20:31:26.684Z,2.00
2019-03-17T20:34:01.539Z,2.43
2019-03-17T20:36:35.072Z,1.60
2019-03-17T20:39:10.233Z,2.03
2019-03-17T20:41:42.436Z,2.97
2019-03-17T20:44:14.641Z,2.60
2019-03-17T20:46:48.266Z,3.23
2019-03-17T20:49:22.586Z,2.63
2019-03-17T20:51:54.572Z,3.27
2019-03-17T20:54:28.261Z,1.70
2019-03-17T20:57:00.838Z,2.20
2019-03-17T20:59:38.819Z,2.87
2019-03-17T21:02:11.647Z,4.00
2019-03-17T21:04:46.371Z,2.00
2019-03-17T21:07:18.809Z,2.33
2019-03-17T21:09:54.353Z,1.57
2019-03-17T21:12:32.408Z,1.50
2019-03-17T21:15:04.548Z,0.90
2019-03-17T21:17:39.892Z,1.17
2019-03-17T21:20:15.360Z,2.67
2019-03-17T21:22:47.610Z,1.30
2019-03-17T21:25:21.089Z,2.40
2019-03-17T21:27:53.943Z,1.77
2019-03-17T21:30:31.293Z,2.20
2019-03-17T21:33:03.210Z,1.23
2019-03-17T21:35:43.270Z,1.73
2019-03-17T21:38:17.762Z,1.03
2019-03-17T21:41:06.539Z,1.10
2019-03-17T21:43:29.208Z,1.13
2019-03-17T21:46:03.170Z,1.77
2019-03-17T21:48:36.309Z,2.00
2019-03-17T21:51:08.290Z,1.00
2019-03-17T21:53:41.321Z,1.33
2019-03-17T21:56:14.817Z,1.47
2019-03-17T21:58:46.744Z,1.53
2019-03-17T22:01:22.677Z,1.80
2019-03-17T22:03:56.824Z,1.37
2019-03-17T22:06:30.823Z,1.47
2019-03-17T22:09:06.338Z,1.83
2019-03-17T22:11:40.219Z,2.37
2019-03-17T22:14:15.850Z,2.40
2019-03-17T22:16:49.494Z,4.40
2019-03-17T22:19:22.679Z,3.67
2019-03-17T22:21:54.890Z,2.20
2019-03-17T22:24:31.743Z,2.40
2019-03-17T22:27:04.998Z,3.23
2019-03-17T22:29:41.415Z,2.20
2019-03-17T22:32:14.048Z,2.90
2019-03-17T22:34:47.586Z,1.80
2019-03-17T22:37:20.224Z,3.63
2019-03-17T22:39:52.558Z,3.03
2019-03-17T22:42:26.672Z,2.60
2019-03-17T22:45:01.843Z,3.20
2019-03-17T22:47:41.892Z,3.57
2019-03-17T22:50:14.528Z,3.13
2019-03-17T22:52:46.622Z,3.23
2019-03-17T22:55:23.659Z,2.03
2019-03-17T22:57:59.377Z,2.50
2019-03-17T23:00:53.712Z,1.37
2019-03-17T23:03:25.474Z,2.03
2019-03-17T23:05:57.307Z,1.80
2019-03-17T23:08:33.730Z,2.67
2019-03-17T23:11:05.472Z,1.53
2019-03-17T23:13:38.921Z,1.40
2019-03-17T23:16:12.394Z,1.37
2019-03-17T23:18:48.434Z,1.37
2019-03-17T23:21:21.361Z,1.13
2019-03-17T23:23:54.335Z,2.13
2019-03-17T23:26:27.467Z,1.63
2019-03-17T23:29:00.656Z,1.23
2019-03-17T23:31:36.037Z,1.87
2019-03-17T23:34:08.188Z,1.30
2019-03-17T23:36:40.074Z,3.17
2019-03-17T23:39:12.434Z,1.60
2019-03-17T23:41:46.513Z,1.60
2019-03-17T23:44:18.569Z,2.60
2019-03-17T23:46:50.748Z,2.37
2019-03-17T23:49:25.308Z,1.40
2019-03-17T23:51:57.142Z,1.70
2019-03-17T23:54:29.413Z,2.80
2019-03-17T23:57:01.198Z,1.70
2019-03-17T23:59:36.837Z,2.30
